Time;durP1;ratioP1;P1;durP2;ratioP2;P2;SDS_P1;SDS_P2;PMS_P1;PMS_P2;Temp;Humidity;BMP_temperature;BMP_pressure;BME280_temperature;BME280_humidity;BME280_pressure;Samples;Min_cycle;Max_cycle;Signal;HPM_P1;HPM_P2
2023/10/30 00:01:26;;;;;;;2.42;1.48;;;;;;;-145.69;55.93;52093.88;5090210;28;20275;-81
2023/10/30 00:03:53;;;;;;;4.32;1.45;;;;;;;-145.69;55.87;52103.78;5091772;28;20208;-81
2023/10/30 00:06:19;;;;;;;4.85;1.42;;;;;;;-145.69;55.86;52097.84;5075897;28;20210;-81
2023/10/30 00:08:46;;;;;;;2.38;1.50;;;;;;;-145.69;55.90;52082.00;5075282;28;20543;-81
2023/10/30 00:11:13;;;;;;;2.80;1.27;;;;;;;-145.69;55.84;52076.03;5075759;28;20237;-80
2023/10/30 00:13:41;;;;;;;6.45;1.73;;;;;;;-145.69;55.90;52085.94;5076250;28;20193;-82
2023/10/30 00:16:09;;;;;;;4.82;1.55;;;;;;;-145.69;55.89;52103.78;5075831;28;20209;-81
2023/10/30 00:18:35;;;;;;;7.25;1.50;;;;;;;-145.69;56.22;52083.97;5075562;28;20203;-82
2023/10/30 00:21:02;;;;;;;1.90;1.50;;;;;;;-145.69;56.01;52076.03;5075480;28;20209;-81
2023/10/30 00:23:28;;;;;;;5.80;1.30;;;;;;;-145.69;56.12;52107.72;5075791;28;20198;-81
2023/10/30 00:25:55;;;;;;;4.50;1.52;;;;;;;-145.69;56.17;52105.75;5075517;28;20226;-81
2023/10/30 00:28:23;;;;;;;2.47;1.40;;;;;;;-145.69;56.11;52085.94;5075738;28;20203;-82
2023/10/30 00:30:49;;;;;;;4.75;1.30;;;;;;;-145.69;56.27;52105.75;5083701;28;20664;-81
2023/10/30 00:33:16;;;;;;;8.32;1.30;;;;;;;-145.69;56.49;52085.94;5095710;28;20202;-81
2023/10/30 00:35:44;;;;;;;3.33;1.25;;;;;;;-145.69;56.65;52099.81;5095415;28;20645;-81
2023/10/30 00:38:10;;;;;;;2.92;1.38;;;;;;;-145.69;56.82;52123.56;5079760;28;20195;-81
2023/10/30 00:40:37;;;;;;;3.00;1.20;;;;;;;-145.69;57.20;52113.66;5082073;28;20194;-81
2023/10/30 00:43:04;;;;;;;4.50;1.33;;;;;;;-145.69;56.89;52117.63;5090808;28;20222;-82
2023/10/30 00:45:32;;;;;;;3.60;1.38;;;;;;;-145.69;57.13;52103.78;5075350;28;20195;-81
2023/10/30 00:47:59;;;;;;;2.90;1.40;;;;;;;-145.69;56.90;52095.84;5075087;28;20226;-81
2023/10/30 00:50:25;;;;;;;3.50;1.30;;;;;;;-145.69;56.82;52105.75;5075022;28;20226;-81
2023/10/30 00:52:51;;;;;;;3.22;1.45;;;;;;;-145.69;56.65;52064.16;5074972;28;20234;-81
2023/10/30 00:55:18;;;;;;;4.45;1.50;;;;;;;-145.69;57.40;52103.78;5075016;28;20209;-81
2023/10/30 00:57:44;;;;;;;3.10;1.47;;;;;;;-145.69;57.75;52123.56;5074920;28;20199;-80
2023/10/30 01:00:11;;;;;;;1.40;1.20;;;;;;;-145.69;57.15;52129.50;5079366;28;20202;-81
2023/10/30 01:02:40;;;;;;;4.63;1.20;;;;;;;-145.69;57.75;52135.47;5094730;28;20206;-82
2023/10/30 01:05:08;;;;;;;1.73;1.08;;;;;;;-145.69;57.25;52099.81;5094961;28;20542;-80
2023/10/30 01:07:35;;;;;;;4.60;1.40;;;;;;;-145.69;57.90;52115.66;5087746;28;20191;-81
2023/10/30 01:10:01;;;;;;;2.87;1.30;;;;;;;-145.69;57.73;52129.50;5084749;28;20194;-81
2023/10/30 01:12:28;;;;;;;2.40;1.50;;;;;;;-145.69;58.34;52121.59;5074512;28;20222;-81
2023/10/30 01:14:54;;;;;;;5.30;1.50;;;;;;;-145.69;58.84;52113.66;5072442;28;20199;-82
2023/10/30 01:17:21;;;;;;;2.60;1.60;;;;;;;-145.69;58.79;52143.38;5073172;28;20195;-82
2023/10/30 01:19:48;;;;;;;3.23;1.60;;;;;;;-145.69;58.89;52123.56;5074723;28;20202;-80
2023/10/30 01:22:15;;;;;;;2.33;1.20;;;;;;;-145.69;58.61;52145.34;5074686;28;20205;-81
2023/10/30 01:24:41;;;;;;;2.60;1.57;;;;;;;-145.69;59.41;52121.59;5087499;28;20197;-80
2023/10/30 01:27:08;;;;;;;2.23;1.50;;;;;;;-145.69;59.37;52135.47;5074472;28;20206;-81
2023/10/30 01:29:34;;;;;;;2.13;1.20;;;;;;;-145.69;59.29;52147.34;5085100;28;20202;-81
2023/10/30 01:32:01;;;;;;;3.87;1.30;;;;;;;-145.69;59.61;52192.88;5094192;28;20233;-81
2023/10/30 01:34:27;;;;;;;2.27;1.50;;;;;;;-145.69;59.56;52115.66;5094410;28;20206;-81
2023/10/30 01:36:55;;;;;;;5.77;1.40;;;;;;;-145.69;60.06;52111.69;5094439;28;20214;-80
2023/10/30 01:39:21;;;;;;;3.20;1.43;;;;;;;-145.69;59.70;52171.09;5094036;28;20199;-81
2023/10/30 01:41:48;;;;;;;6.73;1.50;;;;;;;-145.69;59.70;52147.34;5094560;28;20208;-80
2023/10/30 01:44:14;;;;;;;3.20;1.50;;;;;;;-145.69;59.92;52145.34;5094131;28;20229;-81
2023/10/30 01:46:40;;;;;;;4.13;1.83;;;;;;;-145.69;60.11;52157.25;5094121;28;20209;-81
2023/10/30 01:49:07;;;;;;;2.57;1.60;;;;;;;-145.69;60.21;52129.50;5089610;28;20186;-81
2023/10/30 01:51:33;;;;;;;3.00;1.73;;;;;;;-145.69;60.15;52119.63;5073940;28;20237;-80
2023/10/30 01:54:01;;;;;;;3.53;1.73;;;;;;;-145.69;61.02;52143.38;5082443;28;20194;-81
2023/10/30 01:56:28;;;;;;;8.13;1.97;;;;;;;-145.69;61.37;52155.25;5094117;28;20205;-80
2023/10/30 01:58:55;;;;;;;3.27;1.70;;;;;;;-145.69;61.47;52113.66;5093811;28;20657;-81
2023/10/30 02:01:22;;;;;;;5.97;1.87;;;;;;;-145.69;61.91;52169.13;5078239;28;20205;-81
2023/10/30 02:03:52;;;;;;;7.73;1.87;;;;;;;-145.69;61.51;52143.38;5073593;28;20194;-80
2023/10/30 02:06:18;;;;;;;2.50;1.60;;;;;;;-145.69;61.81;52151.28;5073333;28;20828;-80
2023/10/30 02:08:45;;;;;;;2.27;1.60;;;;;;;-145.69;61.62;52159.22;5073505;28;20214;-80
2023/10/30 02:11:13;;;;;;;2.43;1.70;;;;;;;-145.69;62.04;52123.56;5073879;28;20199;-80
2023/10/30 02:13:39;;;;;;;3.80;2.43;;;;;;;-145.69;62.36;52159.22;5072514;28;20195;-81
2023/10/30 02:16:06;;;;;;;5.87;2.33;;;;;;;-145.69;63.44;52135.47;5073589;28;20203;-81
2023/10/30 02:18:33;;;;;;;3.83;2.00;;;;;;;-145.69;62.51;52161.19;5077836;28;20186;-81
2023/10/30 02:20:59;;;;;;;2.90;1.90;;;;;;;-145.69;62.15;52123.56;5093881;28;20205;-81
2023/10/30 02:23:26;;;;;;;7.63;2.63;;;;;;;-145.69;63.35;52159.22;5089787;28;20195;-80
2023/10/30 02:25:53;;;;;;;7.60;2.03;;;;;;;-145.69;63.77;52147.34;5073354;28;20213;-81
2023/10/30 02:28:20;;;;;;;6.50;1.77;;;;;;;-145.69;64.54;52137.44;5073337;28;20198;-81
2023/10/30 02:30:46;;;;;;;5.87;1.80;;;;;;;-145.69;63.37;52186.94;5073020;28;20202;-81
2023/10/30 02:33:13;;;;;;;2.00;1.70;;;;;;;-145.69;63.37;52151.28;5073039;28;20225;-81
2023/10/30 02:35:39;;;;;;;2.60;1.60;;;;;;;-145.69;62.83;52167.13;5073372;28;20198;-80
2023/10/30 02:38:06;;;;;;;3.20;1.80;;;;;;;-145.69;62.85;52147.34;5073231;28;20562;-81
2023/10/30 02:40:32;;;;;;;4.13;1.67;;;;;;;-145.69;63.19;52145.34;5073196;28;20611;-81
2023/10/30 02:43:00;;;;;;;4.93;1.90;;;;;;;-145.69;63.27;52135.47;5072849;28;20720;-80
2023/10/30 02:45:26;;;;;;;2.50;1.43;;;;;;;-145.69;62.83;52157.25;5072861;28;20198;-81
2023/10/30 02:47:53;;;;;;;3.57;1.63;;;;;;;-145.69;63.28;52165.16;5073049;28;20202;-81
2023/10/30 02:50:19;;;;;;;3.70;1.50;;;;;;;-145.69;63.32;52151.28;5072976;28;20530;-80
2023/10/30 02:52:46;;;;;;;3.23;1.73;;;;;;;-145.69;64.00;52184.97;5081269;28;20689;-80
2023/10/30 02:55:12;;;;;;;3.93;1.60;;;;;;;-145.69;63.94;52131.50;5075927;28;20289;-81
2023/10/30 02:57:40;;;;;;;7.17;1.93;;;;;;;-145.69;63.98;52131.50;5074079;28;20637;-80
2023/10/30 03:00:09;;;;;;;3.33;1.87;;;;;;;-145.69;64.71;52141.41;5073076;28;20598;-80
2023/10/30 03:02:35;;;;;;;6.00;2.87;;;;;;;-145.69;64.49;52155.25;5072817;28;20210;-81
2023/10/30 03:05:02;;;;;;;8.03;3.20;;;;;;;-145.69;64.65;52115.66;5072807;28;20210;-81
2023/10/30 03:07:28;;;;;;;3.90;2.20;;;;;;;-145.69;64.56;52121.59;5072777;28;20677;-81
2023/10/30 03:09:54;;;;;;;5.53;2.17;;;;;;;-145.69;64.17;52133.47;5072825;28;20673;-81
2023/10/30 03:12:21;;;;;;;4.63;1.87;;;;;;;-145.69;64.11;52155.25;5072719;28;20226;-81
2023/10/30 03:14:47;;;;;;;3.27;1.70;;;;;;;-145.69;62.89;52135.47;5072772;28;20199;-80
2023/10/30 03:17:15;;;;;;;3.40;1.60;;;;;;;-145.69;63.00;52151.28;5072930;28;20199;-81
2023/10/30 03:19:42;;;;;;;2.43;1.60;;;;;;;-145.69;62.85;52151.28;5072860;28;20199;-80
2023/10/30 03:22:08;;;;;;;5.37;1.50;;;;;;;-145.69;62.32;52161.19;5072759;28;20209;-81
2023/10/30 03:24:35;;;;;;;3.13;1.70;;;;;;;-145.69;62.45;52177.03;5073428;28;20270;-81
2023/10/30 03:27:01;;;;;;;4.80;1.50;;;;;;;-145.69;62.86;52165.16;5076813;28;20203;-81
2023/10/30 03:29:27;;;;;;;4.03;1.47;;;;;;;-145.69;62.93;52157.25;5076943;28;20203;-81
2023/10/30 03:31:55;;;;;;;2.53;1.60;;;;;;;-145.69;63.05;52173.09;5076570;28;20203;-81
2023/10/30 03:34:23;;;;;;;4.13;2.30;;;;;;;-145.69;62.74;52186.94;5076563;28;20233;-81
2023/10/30 03:36:49;;;;;;;2.57;1.83;;;;;;;-145.69;62.74;52159.22;5076466;28;20651;-81
2023/10/30 03:39:16;;;;;;;2.93;1.90;;;;;;;-145.69;62.86;52155.25;5076591;28;20193;-79
2023/10/30 03:41:44;;;;;;;3.57;1.90;;;;;;;-145.69;63.16;52133.47;5078648;28;20205;-80
2023/10/30 03:44:11;;;;;;;4.07;2.20;;;;;;;-145.69;63.14;52167.13;5077408;28;20235;-80
2023/10/30 03:46:38;;;;;;;2.50;1.60;;;;;;;-145.69;63.84;52202.78;5078914;28;20199;-80
2023/10/30 03:49:04;;;;;;;3.10;1.80;;;;;;;-145.69;63.49;52186.94;5078799;28;20205;-80
2023/10/30 03:51:32;;;;;;;3.03;2.00;;;;;;;-145.69;63.68;52190.91;5078752;28;20248;-80
2023/10/30 03:53:59;;;;;;;7.33;1.90;;;;;;;-145.69;64.09;52177.03;5077907;28;20226;-80
2023/10/30 03:56:25;;;;;;;3.87;1.80;;;;;;;-145.69;64.24;52139.41;5077897;28;20198;-80
2023/10/30 03:58:52;;;;;;;2.97;1.60;;;;;;;-145.69;63.67;52198.81;5078267;28;20198;-80
2023/10/30 04:01:18;;;;;;;6.93;2.20;;;;;;;-145.69;64.75;52127.53;5077844;28;20203;-80
2023/10/30 04:03:45;;;;;;;3.80;1.97;;;;;;;-145.69;64.61;52151.28;5093912;28;20214;-80
2023/10/30 04:06:11;;;;;;;3.67;1.93;;;;;;;-145.69;65.43;52169.13;5096249;28;20200;-80
2023/10/30 04:08:39;;;;;;;3.70;2.13;;;;;;;-145.69;65.61;52186.94;5097405;28;20205;-80
2023/10/30 04:11:10;;;;;;;3.27;2.30;;;;;;;-145.69;65.06;52161.19;5098047;28;20202;-80
2023/10/30 04:13:36;;;;;;;4.77;2.50;;;;;;;-145.69;65.19;52159.22;5088306;28;20214;-79
2023/10/30 04:16:03;;;;;;;3.27;2.23;;;;;;;-145.69;65.46;52149.31;5077617;28;20202;-79
2023/10/30 04:18:30;;;;;;;3.33;2.40;;;;;;;-145.69;64.68;52177.03;5081680;28;20252;-80
2023/10/30 04:20:57;;;;;;;6.13;2.10;;;;;;;-145.69;64.48;52135.47;5097785;28;20201;-79
2023/10/30 04:23:23;;;;;;;5.93;2.10;;;;;;;-145.69;63.88;52177.03;5097719;28;20198;-80
2023/10/30 04:25:51;;;;;;;4.97;2.40;;;;;;;-145.69;63.86;52127.53;5097537;28;20676;-80
2023/10/30 04:28:17;;;;;;;5.03;2.30;;;;;;;-145.69;63.60;52139.41;5096788;28;20194;-80
2023/10/30 04:30:44;;;;;;;3.57;2.30;;;;;;;-145.69;63.86;52155.25;5087357;28;20195;-80
2023/10/30 04:33:10;;;;;;;2.57;1.70;;;;;;;-145.69;63.81;52179.03;5076336;28;20230;-80
2023/10/30 04:35:37;;;;;;;3.43;1.90;;;;;;;-145.69;64.29;52179.03;5074307;28;20224;-79
2023/10/30 04:38:03;;;;;;;6.30;2.10;;;;;;;-145.69;64.10;52161.19;5076393;28;20191;-80
2023/10/30 04:40:29;;;;;;;3.40;2.40;;;;;;;-145.69;64.19;52155.25;5080301;28;20199;-80
2023/10/30 04:42:57;;;;;;;4.30;2.13;;;;;;;-145.69;64.56;52171.09;5097686;28;20248;-80
2023/10/30 04:45:24;;;;;;;5.87;2.70;;;;;;;-145.69;64.39;52165.16;5096906;28;20206;-80
2023/10/30 04:47:50;;;;;;;8.53;3.53;;;;;;;-145.69;64.79;52198.81;5096344;28;20198;-81
2023/10/30 04:50:17;;;;;;;6.33;3.70;;;;;;;-145.69;64.39;52159.22;5096013;28;20199;-80
2023/10/30 04:52:43;;;;;;;4.67;2.87;;;;;;;-145.69;64.42;52159.22;5096076;28;20248;-80
2023/10/30 04:55:10;;;;;;;8.50;3.97;;;;;;;-145.69;64.72;52171.09;5096226;28;20209;-80
2023/10/30 04:57:37;;;;;;;10.50;3.63;;;;;;;-145.69;64.83;52167.13;5096530;28;20284;-80
2023/10/30 05:00:07;;;;;;;6.77;3.20;;;;;;;-145.69;64.66;52181.00;5085922;28;20205;-80
2023/10/30 05:02:33;;;;;;;4.93;2.70;;;;;;;-145.69;64.11;52202.78;5096322;28;20290;-80
2023/10/30 05:05:00;;;;;;;13.00;3.37;;;;;;;-145.69;64.02;52177.03;5096141;28;20553;-80
2023/10/30 05:07:26;;;;;;;8.00;2.70;;;;;;;-145.69;63.92;52163.19;5083443;28;20199;-81
2023/10/30 05:09:52;;;;;;;5.70;2.30;;;;;;;-145.69;64.34;52181.00;5091429;28;20289;-80
2023/10/30 05:12:20;;;;;;;3.80;2.50;;;;;;;-145.69;63.77;52179.03;5095735;28;20549;-81
2023/10/30 05:14:46;;;;;;;4.83;2.53;;;;;;;-145.69;64.48;52184.97;5095493;28;20198;-80
2023/10/30 05:17:14;;;;;;;8.67;3.57;;;;;;;-145.69;64.41;52157.25;5094928;28;20194;-80
2023/10/30 05:19:41;;;;;;;4.90;2.40;;;;;;;-145.69;64.30;52190.91;5095190;28;20198;-80
2023/10/30 05:22:07;;;;;;;6.27;3.50;;;;;;;-145.69;64.36;52159.22;5074765;28;20198;-80
2023/10/30 05:24:34;;;;;;;7.17;2.60;;;;;;;-145.69;64.63;52200.81;5074782;28;20285;-80
2023/10/30 05:27:00;;;;;;;4.80;2.80;;;;;;;-145.69;64.54;52196.84;5074269;28;20272;-80
2023/10/30 05:29:26;;;;;;;4.63;2.73;;;;;;;-145.69;64.94;52181.00;5074543;28;20203;-80
2023/10/30 05:31:53;;;;;;;6.30;3.23;;;;;;;-145.69;64.31;52200.81;5059046;28;20203;-80
2023/10/30 05:34:21;;;;;;;6.60;3.50;;;;;;;-145.69;64.21;52190.91;5054808;28;20223;-80
2023/10/30 05:36:47;;;;;;;6.53;3.33;;;;;;;-145.69;64.74;52181.00;5068205;28;20240;-79
2023/10/30 05:39:14;;;;;;;7.87;3.30;;;;;;;-145.69;64.66;52186.94;5095058;28;20198;-80
2023/10/30 05:41:40;;;;;;;7.27;3.13;;;;;;;-145.69;64.60;52184.97;5094765;28;20198;-80
2023/10/30 05:44:07;;;;;;;4.33;2.77;;;;;;;-145.69;64.88;52163.19;5076125;28;20697;-80
2023/10/30 05:46:33;;;;;;;5.73;2.97;;;;;;;-145.69;64.39;52175.06;5074534;28;20202;-80
2023/10/30 05:49:00;;;;;;;8.00;3.10;;;;;;;-145.69;64.69;52190.91;5075346;28;20199;-81
2023/10/30 05:51:27;;;;;;;4.90;2.83;;;;;;;-145.69;64.74;52202.78;5074570;28;20209;-79
2023/10/30 05:53:54;;;;;;;6.40;3.03;;;;;;;-145.69;64.91;52190.91;5074585;28;20223;-80
2023/10/30 05:56:22;;;;;;;10.03;5.73;;;;;;;-145.69;65.85;52175.06;5074451;28;20201;-82
2023/10/30 05:58:48;;;;;;;11.73;6.73;;;;;;;-145.69;69.18;52194.88;5074134;28;20217;-81
2023/10/30 06:01:15;;;;;;;18.70;8.47;;;;;;;-145.69;66.59;52208.72;5074082;28;20195;-81
2023/10/30 06:03:41;;;;;;;17.70;8.57;;;;;;;-145.69;68.00;52169.13;5074472;28;20198;-80
2023/10/30 06:06:08;;;;;;;16.73;9.10;;;;;;;-145.69;68.63;52182.97;5094280;28;20241;-80
2023/10/30 06:08:36;;;;;;;17.87;9.07;;;;;;;-145.69;67.90;52179.03;5094411;28;20190;-79
2023/10/30 06:11:03;;;;;;;20.23;9.00;;;;;;;-145.69;67.66;52202.78;5092983;28;20284;-80
2023/10/30 06:13:30;;;;;;;14.80;7.60;;;;;;;-145.69;66.83;52155.25;5092924;28;20731;-79
2023/10/30 06:15:56;;;;;;;9.80;5.47;;;;;;;-145.69;66.62;52190.91;5094354;28;20229;-80
2023/10/30 06:18:23;;;;;;;15.90;7.40;;;;;;;-145.69;67.76;52188.91;5094641;28;20228;-80
2023/10/30 06:20:49;;;;;;;20.83;8.60;;;;;;;-145.69;70.43;52175.06;5094654;28;20663;-80
2023/10/30 06:23:16;;;;;;;22.80;9.57;;;;;;;-145.69;66.43;52119.63;5094639;28;20210;-81
2023/10/30 06:25:44;;;;;;;23.37;10.23;;;;;;;-145.69;66.08;52177.03;5094328;28;20198;-80
2023/10/30 06:28:12;;;;;;;19.97;9.20;;;;;;;-145.69;65.48;52171.09;5095657;28;20256;-80
2023/10/30 06:30:39;;;;;;;20.30;9.67;;;;;;;-145.69;67.89;52186.94;5095033;28;20194;-80
2023/10/30 06:33:05;;;;;;;22.47;9.37;;;;;;;-145.69;67.74;52196.84;5083960;28;20246;-80
2023/10/30 06:35:32;;;;;;;18.97;9.87;;;;;;;-145.69;68.96;52167.13;5074422;28;20828;-81
2023/10/30 06:37:58;;;;;;;22.67;11.07;;;;;;;-145.69;69.77;52184.97;5073900;28;20214;-80
2023/10/30 06:40:25;;;;;;;20.30;10.90;;;;;;;-145.69;69.86;52194.88;5073884;28;20207;-80
2023/10/30 06:42:52;;;;;;;18.93;10.37;;;;;;;-145.69;69.56;52167.13;5082726;28;20245;-79
2023/10/30 06:45:19;;;;;;;20.63;10.47;;;;;;;-145.69;69.21;52175.06;5082461;28;20205;-79
2023/10/30 06:47:45;;;;;;;19.20;9.93;;;;;;;-145.69;69.25;52181.00;5075892;28;20203;-81
2023/10/30 06:50:12;;;;;;;19.70;9.30;;;;;;;-145.69;68.45;52190.91;5074954;28;20600;-80
2023/10/30 06:52:38;;;;;;;15.37;8.80;;;;;;;-145.69;68.49;52141.41;5075114;28;20194;-79
2023/10/30 06:55:06;;;;;;;16.63;8.73;;;;;;;-145.69;68.85;52186.94;5074570;28;20233;-80
2023/10/30 06:57:32;;;;;;;13.13;7.73;;;;;;;-145.69;68.38;52159.22;5074317;28;20199;-80
2023/10/30 07:00:00;;;;;;;14.73;8.77;;;;;;;-145.69;68.75;52167.13;5077539;28;20197;-80
2023/10/30 07:02:26;;;;;;;15.67;9.10;;;;;;;-145.69;68.54;52204.75;5093502;28;20213;-80
2023/10/30 07:04:53;;;;;;;15.27;8.93;;;;;;;-145.69;68.19;52161.19;5094583;28;20206;-81
2023/10/30 07:07:19;;;;;;;21.83;12.20;;;;;;;-145.69;68.20;52181.00;5094438;28;20194;-81
2023/10/30 07:09:46;;;;;;;18.50;9.53;;;;;;;-145.69;68.27;52192.88;5094258;28;20202;-80
2023/10/30 07:12:12;;;;;;;17.50;9.40;;;;;;;-145.69;67.96;52163.19;5095030;28;20198;-80
2023/10/30 07:14:39;;;;;;;16.03;9.23;;;;;;;-145.69;68.10;52153.28;5092164;28;20234;-80
2023/10/30 07:17:07;;;;;;;15.33;9.07;;;;;;;-145.69;68.07;52165.16;5073862;28;20238;-81
2023/10/30 07:19:34;;;;;;;16.70;9.53;;;;;;;-145.69;68.30;52137.44;5073158;28;20206;-81
2023/10/30 07:22:02;;;;;;;17.37;9.07;;;;;;;-145.69;68.10;52167.13;5073048;28;20195;-80
2023/10/30 07:24:28;;;;;;;15.53;8.70;;;;;;;-145.69;68.14;52145.34;5073099;28;20668;-81
2023/10/30 07:26:57;;;;;;;16.30;9.07;;;;;;;-145.69;68.17;52190.91;5072890;28;20213;-81
2023/10/30 07:29:24;;;;;;;16.20;9.67;;;;;;;-145.69;67.54;52194.88;5073987;28;20195;-80
2023/10/30 07:31:50;;;;;;;15.77;8.83;;;;;;;-145.69;67.93;52159.22;5084133;28;20209;-81
2023/10/30 07:34:18;;;;;;;17.43;10.70;;;;;;;-145.69;67.36;52159.22;5093197;28;20218;-80
2023/10/30 07:36:44;;;;;;;16.53;9.00;;;;;;;-145.69;67.47;52179.03;5077681;28;20203;-81
2023/10/30 07:39:11;;;;;;;15.77;9.33;;;;;;;-145.69;66.84;52157.25;5073673;28;20195;-81
2023/10/30 07:41:37;;;;;;;17.27;9.43;;;;;;;-145.69;66.41;52151.28;5073521;28;20297;-80
2023/10/30 07:44:04;;;;;;;19.00;9.43;;;;;;;-145.69;66.38;52131.50;5077546;28;20225;-79
2023/10/30 07:46:31;;;;;;;18.40;9.73;;;;;;;-145.69;66.00;52196.84;5093772;28;20201;-80
2023/10/30 07:48:57;;;;;;;16.60;9.67;;;;;;;-145.69;66.43;52194.88;5093591;28;20218;-80
2023/10/30 07:51:25;;;;;;;16.43;9.17;;;;;;;-145.69;65.66;52151.28;5093030;28;20206;-81
2023/10/30 07:53:52;;;;;;;16.47;9.07;;;;;;;-145.69;65.15;52151.28;5094243;28;20229;-81
2023/10/30 07:56:19;;;;;;;17.63;8.97;;;;;;;-145.69;65.51;52137.44;5093937;28;20202;-80
2023/10/30 07:58:45;;;;;;;16.67;8.83;;;;;;;-145.69;65.18;52169.13;5076071;28;20198;-80
2023/10/30 08:01:11;;;;;;;18.90;8.80;;;;;;;-145.69;64.59;52157.25;5074548;28;20217;-80
2023/10/30 08:03:38;;;;;;;14.47;8.30;;;;;;;-145.69;64.88;52155.25;5076257;28;20202;-81
2023/10/30 08:06:05;;;;;;;14.20;8.00;;;;;;;-145.69;64.39;52123.56;5074289;28;20300;-80
2023/10/30 08:08:33;;;;;;;15.05;9.48;;;;;;;-145.69;64.88;52137.44;5072684;28;21002;-81
2023/10/30 08:10:59;;;;;;;17.93;8.60;;;;;;;-145.69;63.50;52161.19;5075005;28;20202;-80
2023/10/30 08:13:26;;;;;;;11.47;7.17;;;;;;;-145.69;63.61;52137.44;5076073;28;20665;-80
2023/10/30 08:15:54;;;;;;;11.07;7.10;;;;;;;-145.69;63.12;52121.59;5076759;28;20206;-80
2023/10/30 08:18:21;;;;;;;12.07;6.47;;;;;;;-145.69;62.26;52129.50;5077107;28;20198;-80
2023/10/30 08:20:47;;;;;;;13.60;7.13;;;;;;;-145.69;62.13;52167.13;5076896;28;20221;-81
2023/10/30 08:23:15;;;;;;;13.07;6.53;;;;;;;-145.69;61.69;52159.22;5076953;28;20209;-83
2023/10/30 08:25:43;;;;;;;10.33;6.40;;;;;;;-145.69;61.45;52135.47;5076426;28;20263;-80
2023/10/30 08:28:10;;;;;;;10.07;6.30;;;;;;;-145.69;61.32;52123.56;5088028;28;20209;-81
2023/10/30 08:30:37;;;;;;;13.10;6.47;;;;;;;-145.69;61.38;52147.34;5094580;28;20201;-79
2023/10/30 08:33:04;;;;;;;9.00;5.10;;;;;;;-145.69;60.76;52111.69;5090841;28;20197;-81
2023/10/30 08:35:32;;;;;;;8.63;5.30;;;;;;;-145.69;60.79;52119.63;5076287;28;20268;-80
2023/10/30 08:37:58;;;;;;;8.27;5.00;;;;;;;-145.69;59.87;52123.56;5075302;28;20206;-80
2023/10/30 08:40:25;;;;;;;8.75;4.25;;;;;;;-145.69;59.32;52115.66;5076174;28;20203;-81
2023/10/30 08:42:53;;;;;;;6.80;4.37;;;;;;;-145.69;58.75;52103.78;5075323;28;20234;-81
2023/10/30 08:45:19;;;;;;;9.15;4.28;;;;;;;-145.69;59.31;52131.50;5075137;28;20543;-82
2023/10/30 08:47:46;;;;;;;6.72;4.30;;;;;;;-145.69;59.50;52135.47;5075354;28;20289;-82
2023/10/30 08:50:12;;;;;;;6.00;4.03;;;;;;;-145.69;58.70;52135.47;5075170;28;20203;-82
2023/10/30 08:52:39;;;;;;;7.25;4.20;;;;;;;-145.69;58.71;52119.63;5074969;28;20684;-81
2023/10/30 08:55:06;;;;;;;7.20;4.57;;;;;;;-145.69;58.65;52091.88;5074932;28;20784;-82
2023/10/30 08:57:33;;;;;;;8.40;4.18;;;;;;;-145.69;58.34;52133.47;5074973;28;20213;-82
2023/10/30 09:00:00;;;;;;;11.20;4.60;;;;;;;-145.69;58.57;52087.94;5085493;28;20212;-82
2023/10/30 09:02:27;;;;;;;6.60;3.70;;;;;;;-145.69;58.64;52115.66;5080538;28;20664;-82
2023/10/30 09:04:54;;;;;;;5.40;3.67;;;;;;;-145.69;58.57;52121.59;5095144;28;20657;-81
2023/10/30 09:07:20;;;;;;;10.30;4.20;;;;;;;-145.69;58.04;52103.78;5095194;28;20202;-82
2023/10/30 09:09:47;;;;;;;8.07;4.22;;;;;;;-145.69;57.87;52091.88;5095120;28;20255;-81
2023/10/30 09:12:13;;;;;;;9.32;4.13;;;;;;;-145.69;58.18;52115.66;5075408;28;20210;-81
2023/10/30 09:14:40;;;;;;;6.90;4.07;;;;;;;-145.69;58.21;52125.56;5074497;28;20215;-81
2023/10/30 09:17:08;;;;;;;8.02;3.78;;;;;;;-145.69;57.62;52103.78;5094047;28;20220;-81
2023/10/30 09:19:35;;;;;;;7.40;3.35;;;;;;;-145.69;57.23;52111.69;5095145;28;20208;-80
2023/10/30 09:22:01;;;;;;;5.30;3.20;;;;;;;-145.69;57.56;52117.63;5094350;28;20205;-80
2023/10/30 09:24:28;;;;;;;6.97;3.40;;;;;;;-145.69;56.86;52093.88;5094713;28;20213;-81
2023/10/30 09:26:54;;;;;;;6.38;3.33;;;;;;;-145.69;56.60;52099.81;5094537;28;20194;-81
2023/10/30 09:29:24;;;;;;;7.53;3.28;;;;;;;-145.69;55.92;52068.13;5089398;28;20187;-82
2023/10/30 09:31:50;;;;;;;8.60;3.40;;;;;;;-145.69;55.57;52113.66;5074340;28;20553;-81
2023/10/30 09:34:18;;;;;;;3.45;2.42;;;;;;;-145.69;55.99;52083.97;5073937;28;20226;-81
2023/10/30 09:36:45;;;;;;;5.22;2.97;;;;;;;-145.69;54.83;52087.94;5059930;28;20204;-81
2023/10/30 09:39:13;;;;;;;4.90;2.33;;;;;;;-145.69;54.74;52091.88;5054293;28;20214;-81
2023/10/30 09:41:44;;;;;;;5.00;2.97;;;;;;;-145.69;53.82;52076.03;5053960;28;20295;-81
2023/10/30 09:44:14;;;;;;;4.57;2.50;;;;;;;-145.69;53.30;52107.72;5053887;28;20232;-80
2023/10/30 09:46:45;;;;;;;5.80;2.83;;;;;;;-145.69;52.87;52060.22;5084249;28;20279;-81
2023/10/30 09:49:13;;;;;;;7.18;2.58;;;;;;;-145.69;52.84;52038.44;5054150;28;20245;-81
2023/10/30 09:51:45;;;;;;;5.82;2.40;;;;;;;-145.69;51.93;52074.06;5054240;28;20195;-81
2023/10/30 09:54:13;;;;;;;4.32;2.50;;;;;;;-145.69;52.46;52087.94;5053802;28;20227;-80
2023/10/30 09:56:44;;;;;;;7.35;2.40;;;;;;;-145.69;52.24;52082.00;5053784;28;20207;-81
2023/10/30 09:59:13;;;;;;;2.75;2.00;;;;;;;-145.69;51.55;52048.31;5056570;28;20200;-81
2023/10/30 10:01:40;;;;;;;9.43;2.00;;;;;;;-145.69;51.43;52056.25;5074015;28;20202;-80
2023/10/30 10:04:06;;;;;;;4.00;1.83;;;;;;;-145.69;51.00;52072.09;5074738;28;20283;-81
2023/10/30 10:06:33;;;;;;;4.57;2.10;;;;;;;-145.69;50.77;52048.31;5073204;28;20206;-81
2023/10/30 10:09:05;;;;;;;4.97;1.90;;;;;;;-145.69;50.01;52085.94;5073664;28;20209;-81
2023/10/30 10:11:35;;;;;;;4.13;1.83;;;;;;;-145.69;50.01;52018.63;5073520;28;20195;-81
2023/10/30 10:14:02;;;;;;;2.97;1.90;;;;;;;-145.69;49.94;52052.28;5073465;28;20222;-81
2023/10/30 10:16:38;;;;;;;2.88;1.90;;;;;;;-145.69;49.62;52068.13;5073575;28;20212;-82
2023/10/30 10:19:20;;;;;;;2.10;1.40;;;;;;;-145.69;49.08;52076.03;5072849;28;20469;-81
2023/10/30 10:21:48;;;;;;;3.53;1.80;;;;;;;-145.69;48.66;52048.31;5073453;28;20445;-81
2023/10/30 10:24:28;;;;;;;3.78;1.58;;;;;;;-145.69;47.95;52032.47;5073220;28;20203;-81
2023/10/30 10:26:57;;;;;;;6.78;1.98;;;;;;;-145.69;47.93;52040.41;5073428;28;20209;-82
2023/10/30 10:29:26;;;;;;;5.40;2.30;;;;;;;-145.69;47.47;52036.44;5072624;28;20191;-82
2023/10/30 10:31:52;;;;;;;4.65;1.77;;;;;;;-145.69;47.28;52036.44;5073209;28;20195;-81
2023/10/30 10:34:23;;;;;;;4.28;1.63;;;;;;;-145.69;47.25;52056.25;5088933;28;20229;-81
2023/10/30 10:36:49;;;;;;;1.73;1.30;;;;;;;-145.69;47.09;52036.44;5088096;28;20684;-81
2023/10/30 10:39:16;;;;;;;2.90;1.48;;;;;;;-145.69;47.16;52040.41;5072962;28;20202;-81
2023/10/30 10:41:45;;;;;;;2.63;1.50;;;;;;;-145.69;47.68;52016.66;5073157;28;20280;-81
2023/10/30 10:44:15;;;;;;;2.85;1.40;;;;;;;-145.69;46.85;52016.66;5072832;28;20759;-82
2023/10/30 10:46:44;;;;;;;3.67;1.60;;;;;;;-145.69;47.03;52038.44;5072950;28;20594;-81
2023/10/30 10:49:11;;;;;;;4.38;1.70;;;;;;;-145.69;46.92;52056.25;5072940;28;20204;-81
2023/10/30 10:51:40;;;;;;;2.67;1.60;;;;;;;-145.69;47.25;52060.22;5073116;28;20594;-81
2023/10/30 10:54:17;;;;;;;3.53;1.65;;;;;;;-145.69;46.38;52038.44;5072975;28;20198;-82
2023/10/30 10:56:51;;;;;;;2.85;1.45;;;;;;;-145.69;46.58;52050.31;5072960;28;20206;-81
2023/10/30 10:59:22;;;;;;;5.10;2.25;;;;;;;-145.69;46.66;52056.25;5072925;28;20190;-82
2023/10/30 11:01:52;;;;;;;6.70;2.08;;;;;;;-145.69;47.31;52012.69;5074112;28;20263;-81
2023/10/30 11:04:22;;;;;;;4.78;1.58;;;;;;;-145.69;46.61;52026.53;5072923;28;20693;-81
2023/10/30 11:06:57;;;;;;;3.60;1.50;;;;;;;-145.69;46.08;52022.59;5072801;28;20210;-81
2023/10/30 11:09:41;;;;;;;3.08;2.10;;;;;;;-145.69;46.43;52068.13;5072694;28;20202;-82
2023/10/30 11:12:20;;;;;;;2.35;1.67;;;;;;;-145.69;46.38;52048.31;5072664;28;20199;-81
2023/10/30 11:14:55;;;;;;;3.63;1.50;;;;;;;-145.69;46.83;52038.44;5072760;28;20222;-82